sensor_id;sensor_type;location;lat;lon;timestamp;P1;durP1;ratioP1;P2;durP2;ratioP2
21305;SDS011;10812;51.838;5.838;2022-07-21T00:02:09;16.25;;;14.55;;
21305;SDS011;10812;51.838;5.838;2022-07-21T00:04:37;17.27;;;14.25;;
21305;SDS011;10812;51.838;5.838;2022-07-21T00:07:06;15.73;;;14.13;;
21305;SDS011;10812;51.838;5.838;2022-07-21T00:09:34;14.88;;;13.38;;
21305;SDS011;10812;51.838;5.838;2022-07-21T00:12:02;17.33;;;14.48;;
21305;SDS011;10812;51.838;5.838;2022-07-21T00:14:32;15.05;;;13.23;;
21305;SDS011;10812;51.838;5.838;2022-07-21T00:17:00;16.85;;;14.43;;
21305;SDS011;10812;51.838;5.838;2022-07-21T00:19:28;17.50;;;14.57;;
21305;SDS011;10812;51.838;5.838;2022-07-21T00:21:56;17.23;;;15.38;;
21305;SDS011;10812;51.838;5.838;2022-07-21T00:24:24;17.30;;;13.38;;
21305;SDS011;10812;51.838;5.838;2022-07-21T00:38:27;20.45;;;15.57;;
21305;SDS011;10812;51.838;5.838;2022-07-21T00:40:55;16.40;;;14.48;;
21305;SDS011;10812;51.838;5.838;2022-07-21T00:43:23;21.33;;;15.10;;
21305;SDS011;10812;51.838;5.838;2022-07-21T00:45:51;18.55;;;15.38;;
21305;SDS011;10812;51.838;5.838;2022-07-21T00:48:20;15.95;;;14.27;;
21305;SDS011;10812;51.838;5.838;2022-07-21T00:50:49;16.80;;;15.05;;
21305;SDS011;10812;51.838;5.838;2022-07-21T00:53:17;17.73;;;14.57;;
21305;SDS011;10812;51.838;5.838;2022-07-21T00:55:46;17.17;;;15.38;;
21305;SDS011;10812;51.838;5.838;2022-07-21T00:58:14;21.25;;;15.88;;
21305;SDS011;10812;51.838;5.838;2022-07-21T01:00:42;19.80;;;15.75;;
21305;SDS011;10812;51.838;5.838;2022-07-21T01:03:11;17.70;;;14.77;;
21305;SDS011;10812;51.838;5.838;2022-07-21T01:05:39;18.40;;;15.98;;
21305;SDS011;10812;51.838;5.838;2022-07-21T01:08:07;17.00;;;15.02;;
21305;SDS011;10812;51.838;5.838;2022-07-21T01:10:36;17.30;;;15.32;;
21305;SDS011;10812;51.838;5.838;2022-07-21T01:13:05;18.42;;;15.90;;
21305;SDS011;10812;51.838;5.838;2022-07-21T01:15:33;18.00;;;16.13;;
21305;SDS011;10812;51.838;5.838;2022-07-21T01:18:02;17.98;;;16.02;;
21305;SDS011;10812;51.838;5.838;2022-07-21T01:20:32;18.77;;;16.45;;
21305;SDS011;10812;51.838;5.838;2022-07-21T01:23:03;18.58;;;16.60;;
21305;SDS011;10812;51.838;5.838;2022-07-21T01:25:32;19.88;;;17.83;;
21305;SDS011;10812;51.838;5.838;2022-07-21T01:28:00;20.70;;;18.17;;
21305;SDS011;10812;51.838;5.838;2022-07-21T01:30:28;20.52;;;17.20;;
21305;SDS011;10812;51.838;5.838;2022-07-21T01:32:56;19.00;;;16.98;;
21305;SDS011;10812;51.838;5.838;2022-07-21T01:35:24;18.33;;;16.40;;
21305;SDS011;10812;51.838;5.838;2022-07-21T01:37:52;20.08;;;16.40;;
21305;SDS011;10812;51.838;5.838;2022-07-21T01:40:24;18.70;;;16.75;;
21305;SDS011;10812;51.838;5.838;2022-07-21T01:43:09;18.38;;;16.08;;
21305;SDS011;10812;51.838;5.838;2022-07-21T01:45:38;17.42;;;15.18;;
21305;SDS011;10812;51.838;5.838;2022-07-21T01:48:07;19.23;;;16.25;;
21305;SDS011;10812;51.838;5.838;2022-07-21T01:50:36;16.85;;;15.05;;
21305;SDS011;10812;51.838;5.838;2022-07-21T01:53:04;17.38;;;15.43;;
21305;SDS011;10812;51.838;5.838;2022-07-21T01:55:34;17.42;;;15.63;;
21305;SDS011;10812;51.838;5.838;2022-07-21T01:58:02;17.63;;;15.52;;
21305;SDS011;10812;51.838;5.838;2022-07-21T02:00:30;17.45;;;15.63;;
21305;SDS011;10812;51.838;5.838;2022-07-21T02:02:58;17.35;;;14.75;;
21305;SDS011;10812;51.838;5.838;2022-07-21T02:05:26;17.27;;;14.68;;
21305;SDS011;10812;51.838;5.838;2022-07-21T02:07:54;17.08;;;14.68;;
21305;SDS011;10812;51.838;5.838;2022-07-21T02:10:22;16.75;;;14.02;;
21305;SDS011;10812;51.838;5.838;2022-07-21T02:12:52;15.35;;;13.75;;
21305;SDS011;10812;51.838;5.838;2022-07-21T02:15:20;14.52;;;12.82;;
21305;SDS011;10812;51.838;5.838;2022-07-21T02:17:48;14.25;;;12.57;;
21305;SDS011;10812;51.838;5.838;2022-07-21T02:20:17;16.70;;;13.50;;
21305;SDS011;10812;51.838;5.838;2022-07-21T02:22:45;15.02;;;12.75;;
21305;SDS011;10812;51.838;5.838;2022-07-21T02:25:13;16.15;;;13.05;;
21305;SDS011;10812;51.838;5.838;2022-07-21T02:27:41;14.93;;;13.15;;
21305;SDS011;10812;51.838;5.838;2022-07-21T02:30:11;15.20;;;13.23;;
21305;SDS011;10812;51.838;5.838;2022-07-21T02:32:40;14.68;;;13.18;;
21305;SDS011;10812;51.838;5.838;2022-07-21T02:35:09;14.38;;;12.88;;
21305;SDS011;10812;51.838;5.838;2022-07-21T02:37:37;15.73;;;12.63;;
21305;SDS011;10812;51.838;5.838;2022-07-21T02:40:06;14.98;;;12.25;;
21305;SDS011;10812;51.838;5.838;2022-07-21T02:42:35;14.25;;;12.75;;
21305;SDS011;10812;51.838;5.838;2022-07-21T02:45:04;15.45;;;13.05;;
21305;SDS011;10812;51.838;5.838;2022-07-21T02:47:34;14.40;;;12.93;;
21305;SDS011;10812;51.838;5.838;2022-07-21T02:50:15;14.82;;;13.23;;
21305;SDS011;10812;51.838;5.838;2022-07-21T02:52:44;16.45;;;13.57;;
21305;SDS011;10812;51.838;5.838;2022-07-21T02:55:12;16.65;;;13.63;;
21305;SDS011;10812;51.838;5.838;2022-07-21T02:57:40;15.10;;;13.50;;
21305;SDS011;10812;51.838;5.838;2022-07-21T03:08:19;17.13;;;14.13;;
21305;SDS011;10812;51.838;5.838;2022-07-21T03:10:49;15.70;;;13.07;;
21305;SDS011;10812;51.838;5.838;2022-07-21T03:13:17;16.63;;;13.60;;
21305;SDS011;10812;51.838;5.838;2022-07-21T03:15:45;19.65;;;14.27;;
21305;SDS011;10812;51.838;5.838;2022-07-21T03:18:14;16.88;;;14.25;;
21305;SDS011;10812;51.838;5.838;2022-07-21T03:20:42;15.68;;;12.85;;
21305;SDS011;10812;51.838;5.838;2022-07-21T03:23:11;15.75;;;14.15;;
21305;SDS011;10812;51.838;5.838;2022-07-21T03:25:41;18.08;;;15.13;;
21305;SDS011;10812;51.838;5.838;2022-07-21T03:28:09;16.10;;;13.43;;
21305;SDS011;10812;51.838;5.838;2022-07-21T03:30:37;17.23;;;13.90;;
21305;SDS011;10812;51.838;5.838;2022-07-21T03:33:05;17.10;;;14.40;;
21305;SDS011;10812;51.838;5.838;2022-07-21T03:35:34;16.27;;;14.57;;
21305;SDS011;10812;51.838;5.838;2022-07-21T03:38:03;16.67;;;13.57;;
21305;SDS011;10812;51.838;5.838;2022-07-21T03:40:32;16.42;;;13.05;;
21305;SDS011;10812;51.838;5.838;2022-07-21T03:43:04;16.58;;;13.65;;
21305;SDS011;10812;51.838;5.838;2022-07-21T03:45:34;15.75;;;13.48;;
21305;SDS011;10812;51.838;5.838;2022-07-21T03:51:06;15.82;;;13.75;;
21305;SDS011;10812;51.838;5.838;2022-07-21T03:53:35;19.42;;;15.40;;
21305;SDS011;10812;51.838;5.838;2022-07-21T03:56:04;17.83;;;14.80;;
21305;SDS011;10812;51.838;5.838;2022-07-21T03:58:33;16.45;;;14.75;;
21305;SDS011;10812;51.838;5.838;2022-07-21T04:01:02;17.17;;;15.35;;
21305;SDS011;10812;51.838;5.838;2022-07-21T04:03:30;18.15;;;15.05;;
21305;SDS011;10812;51.838;5.838;2022-07-21T04:06:00;17.73;;;14.55;;
21305;SDS011;10812;51.838;5.838;2022-07-21T04:08:28;18.85;;;15.68;;
21305;SDS011;10812;51.838;5.838;2022-07-21T04:10:56;17.73;;;15.38;;
21305;SDS011;10812;51.838;5.838;2022-07-21T04:13:25;17.77;;;14.98;;
21305;SDS011;10812;51.838;5.838;2022-07-21T04:15:55;17.50;;;14.88;;
21305;SDS011;10812;51.838;5.838;2022-07-21T04:18:23;17.70;;;15.27;;
21305;SDS011;10812;51.838;5.838;2022-07-21T04:20:51;18.15;;;14.90;;
21305;SDS011;10812;51.838;5.838;2022-07-21T04:23:19;18.13;;;15.35;;
21305;SDS011;10812;51.838;5.838;2022-07-21T04:25:47;18.13;;;15.82;;
21305;SDS011;10812;51.838;5.838;2022-07-21T04:28:15;20.52;;;16.65;;
21305;SDS011;10812;51.838;5.838;2022-07-21T04:30:43;19.33;;;15.45;;
21305;SDS011;10812;51.838;5.838;2022-07-21T04:33:13;18.10;;;15.25;;
21305;SDS011;10812;51.838;5.838;2022-07-21T04:35:41;19.42;;;15.35;;
21305;SDS011;10812;51.838;5.838;2022-07-21T04:38:09;19.80;;;15.68;;
21305;SDS011;10812;51.838;5.838;2022-07-21T04:40:38;17.20;;;14.90;;
21305;SDS011;10812;51.838;5.838;2022-07-21T04:43:06;18.48;;;14.73;;
21305;SDS011;10812;51.838;5.838;2022-07-21T04:45:34;18.88;;;15.43;;
21305;SDS011;10812;51.838;5.838;2022-07-21T04:48:02;19.45;;;15.30;;
21305;SDS011;10812;51.838;5.838;2022-07-21T04:50:32;18.88;;;15.13;;
21305;SDS011;10812;51.838;5.838;2022-07-21T04:53:01;17.45;;;15.65;;
21305;SDS011;10812;51.838;5.838;2022-07-21T04:55:29;22.08;;;17.40;;
21305;SDS011;10812;51.838;5.838;2022-07-21T04:57:57;19.98;;;16.63;;
21305;SDS011;10812;51.838;5.838;2022-07-21T05:00:25;22.33;;;17.45;;
21305;SDS011;10812;51.838;5.838;2022-07-21T05:02:54;21.75;;;18.48;;
21305;SDS011;10812;51.838;5.838;2022-07-21T05:05:24;23.63;;;18.40;;
21305;SDS011;10812;51.838;5.838;2022-07-21T05:07:53;22.73;;;17.75;;
21305;SDS011;10812;51.838;5.838;2022-07-21T05:10:22;22.73;;;18.38;;
21305;SDS011;10812;51.838;5.838;2022-07-21T05:12:50;22.70;;;18.55;;
21305;SDS011;10812;51.838;5.838;2022-07-21T05:15:18;23.33;;;18.98;;
21305;SDS011;10812;51.838;5.838;2022-07-21T05:17:46;25.35;;;19.23;;
21305;SDS011;10812;51.838;5.838;2022-07-21T05:20:15;22.42;;;18.20;;
21305;SDS011;10812;51.838;5.838;2022-07-21T05:22:43;23.65;;;19.30;;
21305;SDS011;10812;51.838;5.838;2022-07-21T05:25:12;23.58;;;19.77;;
21305;SDS011;10812;51.838;5.838;2022-07-21T05:27:41;25.17;;;20.08;;
21305;SDS011;10812;51.838;5.838;2022-07-21T05:30:09;27.42;;;20.10;;
21305;SDS011;10812;51.838;5.838;2022-07-21T05:32:38;24.58;;;19.50;;
21305;SDS011;10812;51.838;5.838;2022-07-21T05:35:13;26.08;;;19.83;;
21305;SDS011;10812;51.838;5.838;2022-07-21T05:37:41;25.15;;;20.23;;
21305;SDS011;10812;51.838;5.838;2022-07-21T05:40:10;24.00;;;19.55;;
21305;SDS011;10812;51.838;5.838;2022-07-21T05:42:39;24.90;;;20.23;;
21305;SDS011;10812;51.838;5.838;2022-07-21T05:45:08;23.90;;;19.80;;
21305;SDS011;10812;51.838;5.838;2022-07-21T05:47:38;24.98;;;19.35;;
21305;SDS011;10812;51.838;5.838;2022-07-21T05:50:07;26.55;;;20.42;;
21305;SDS011;10812;51.838;5.838;2022-07-21T05:52:36;24.83;;;19.63;;
21305;SDS011;10812;51.838;5.838;2022-07-21T05:55:04;23.90;;;19.02;;
21305;SDS011;10812;51.838;5.838;2022-07-21T05:57:33;24.52;;;18.80;;
21305;SDS011;10812;51.838;5.838;2022-07-21T06:00:10;22.65;;;18.02;;
21305;SDS011;10812;51.838;5.838;2022-07-21T06:02:39;23.42;;;19.33;;
21305;SDS011;10812;51.838;5.838;2022-07-21T06:05:07;22.02;;;18.00;;
21305;SDS011;10812;51.838;5.838;2022-07-21T06:07:37;20.63;;;17.25;;
21305;SDS011;10812;51.838;5.838;2022-07-21T06:10:07;19.23;;;15.80;;
21305;SDS011;10812;51.838;5.838;2022-07-21T06:12:41;19.00;;;15.52;;
21305;SDS011;10812;51.838;5.838;2022-07-21T06:15:11;19.27;;;16.55;;
21305;SDS011;10812;51.838;5.838;2022-07-21T06:17:40;18.30;;;14.90;;
21305;SDS011;10812;51.838;5.838;2022-07-21T06:20:09;16.85;;;14.80;;
21305;SDS011;10812;51.838;5.838;2022-07-21T06:22:38;22.17;;;15.25;;
21305;SDS011;10812;51.838;5.838;2022-07-21T06:25:06;17.35;;;15.00;;
21305;SDS011;10812;51.838;5.838;2022-07-21T06:35:18;19.08;;;14.50;;
21305;SDS011;10812;51.838;5.838;2022-07-21T06:37:47;19.13;;;13.65;;
21305;SDS011;10812;51.838;5.838;2022-07-21T06:40:15;20.42;;;13.52;;
21305;SDS011;10812;51.838;5.838;2022-07-21T06:42:43;20.40;;;14.90;;
21305;SDS011;10812;51.838;5.838;2022-07-21T06:45:31;19.33;;;14.65;;
21305;SDS011;10812;51.838;5.838;2022-07-21T06:48:00;20.10;;;15.13;;
21305;SDS011;10812;51.838;5.838;2022-07-21T06:50:31;23.85;;;16.05;;
21305;SDS011;10812;51.838;5.838;2022-07-21T06:53:01;18.60;;;15.20;;
21305;SDS011;10812;51.838;5.838;2022-07-21T06:55:29;24.15;;;15.85;;
21305;SDS011;10812;51.838;5.838;2022-07-21T06:57:58;21.05;;;15.13;;
21305;SDS011;10812;51.838;5.838;2022-07-21T07:00:35;21.08;;;15.98;;
21305;SDS011;10812;51.838;5.838;2022-07-21T07:03:05;21.15;;;16.35;;
21305;SDS011;10812;51.838;5.838;2022-07-21T07:05:34;24.70;;;16.90;;
21305;SDS011;10812;51.838;5.838;2022-07-21T07:08:03;24.48;;;17.75;;
21305;SDS011;10812;51.838;5.838;2022-07-21T07:10:37;21.02;;;17.35;;
21305;SDS011;10812;51.838;5.838;2022-07-21T07:13:05;23.23;;;17.95;;
21305;SDS011;10812;51.838;5.838;2022-07-21T07:15:54;20.83;;;17.30;;
21305;SDS011;10812;51.838;5.838;2022-07-21T07:18:22;24.42;;;17.05;;
21305;SDS011;10812;51.838;5.838;2022-07-21T07:20:52;21.85;;;16.67;;
21305;SDS011;10812;51.838;5.838;2022-07-21T07:23:21;21.77;;;16.42;;
21305;SDS011;10812;51.838;5.838;2022-07-21T07:25:49;19.70;;;15.93;;
21305;SDS011;10812;51.838;5.838;2022-07-21T07:28:17;24.33;;;17.20;;
21305;SDS011;10812;51.838;5.838;2022-07-21T07:30:45;22.67;;;16.75;;
21305;SDS011;10812;51.838;5.838;2022-07-21T07:33:14;22.17;;;17.17;;
21305;SDS011;10812;51.838;5.838;2022-07-21T07:35:43;22.10;;;16.52;;
21305;SDS011;10812;51.838;5.838;2022-07-21T07:38:13;18.65;;;15.20;;
21305;SDS011;10812;51.838;5.838;2022-07-21T07:40:42;20.27;;;15.50;;
21305;SDS011;10812;51.838;5.838;2022-07-21T07:43:10;20.77;;;15.80;;
21305;SDS011;10812;51.838;5.838;2022-07-21T07:45:38;19.83;;;15.50;;
21305;SDS011;10812;51.838;5.838;2022-07-21T07:48:07;22.50;;;15.75;;
21305;SDS011;10812;51.838;5.838;2022-07-21T07:50:35;19.63;;;15.18;;
21305;SDS011;10812;51.838;5.838;2022-07-21T07:53:03;24.33;;;16.02;;
21305;SDS011;10812;51.838;5.838;2022-07-21T07:55:32;20.60;;;15.77;;
21305;SDS011;10812;51.838;5.838;2022-07-21T07:58:01;21.60;;;16.33;;
21305;SDS011;10812;51.838;5.838;2022-07-21T08:00:29;24.45;;;16.00;;
21305;SDS011;10812;51.838;5.838;2022-07-21T08:03:17;20.65;;;16.73;;
21305;SDS011;10812;51.838;5.838;2022-07-21T08:05:46;22.42;;;15.90;;
21305;SDS011;10812;51.838;5.838;2022-07-21T08:08:14;21.75;;;15.73;;
21305;SDS011;10812;51.838;5.838;2022-07-21T08:10:45;25.08;;;17.27;;
21305;SDS011;10812;51.838;5.838;2022-07-21T08:13:14;26.77;;;17.55;;
21305;SDS011;10812;51.838;5.838;2022-07-21T08:15:44;23.92;;;16.92;;
21305;SDS011;10812;51.838;5.838;2022-07-21T08:18:14;23.85;;;16.85;;
21305;SDS011;10812;51.838;5.838;2022-07-21T08:20:43;23.75;;;16.90;;
21305;SDS011;10812;51.838;5.838;2022-07-21T08:23:11;22.98;;;16.85;;
21305;SDS011;10812;51.838;5.838;2022-07-21T08:25:40;23.30;;;16.45;;
21305;SDS011;10812;51.838;5.838;2022-07-21T08:28:10;21.65;;;17.05;;
21305;SDS011;10812;51.838;5.838;2022-07-21T08:30:39;26.08;;;18.45;;
21305;SDS011;10812;51.838;5.838;2022-07-21T08:33:07;22.35;;;17.02;;
21305;SDS011;10812;51.838;5.838;2022-07-21T08:35:36;25.85;;;16.85;;
21305;SDS011;10812;51.838;5.838;2022-07-21T08:38:04;23.25;;;16.10;;
21305;SDS011;10812;51.838;5.838;2022-07-21T08:40:35;22.45;;;16.83;;
21305;SDS011;10812;51.838;5.838;2022-07-21T08:43:05;26.60;;;18.10;;
21305;SDS011;10812;51.838;5.838;2022-07-21T08:45:36;27.13;;;19.05;;
21305;SDS011;10812;51.838;5.838;2022-07-21T08:48:05;22.05;;;16.50;;
21305;SDS011;10812;51.838;5.838;2022-07-21T08:50:35;25.48;;;18.23;;
21305;SDS011;10812;51.838;5.838;2022-07-21T08:53:05;30.40;;;18.58;;
21305;SDS011;10812;51.838;5.838;2022-07-21T08:55:34;23.52;;;17.58;;
21305;SDS011;10812;51.838;5.838;2022-07-21T08:58:06;24.90;;;18.15;;
21305;SDS011;10812;51.838;5.838;2022-07-21T09:00:36;25.80;;;19.02;;
21305;SDS011;10812;51.838;5.838;2022-07-21T09:03:10;28.20;;;17.27;;
21305;SDS011;10812;51.838;5.838;2022-07-21T09:05:40;22.70;;;16.63;;
21305;SDS011;10812;51.838;5.838;2022-07-21T09:08:09;23.92;;;14.68;;
21305;SDS011;10812;51.838;5.838;2022-07-21T09:10:37;18.25;;;13.43;;
21305;SDS011;10812;51.838;5.838;2022-07-21T09:13:06;14.95;;;11.68;;
21305;SDS011;10812;51.838;5.838;2022-07-21T09:15:37;16.10;;;12.05;;
21305;SDS011;10812;51.838;5.838;2022-07-21T09:18:09;13.85;;;10.85;;
21305;SDS011;10812;51.838;5.838;2022-07-21T09:20:45;11.60;;;9.75;;
21305;SDS011;10812;51.838;5.838;2022-07-21T09:23:16;13.52;;;8.52;;
21305;SDS011;10812;51.838;5.838;2022-07-21T09:25:47;9.75;;;6.93;;
21305;SDS011;10812;51.838;5.838;2022-07-21T09:28:17;9.18;;;7.75;;
21305;SDS011;10812;51.838;5.838;2022-07-21T09:30:52;7.35;;;5.88;;
21305;SDS011;10812;51.838;5.838;2022-07-21T09:33:24;7.60;;;5.25;;
21305;SDS011;10812;51.838;5.838;2022-07-21T09:35:54;5.63;;;4.18;;
21305;SDS011;10812;51.838;5.838;2022-07-21T09:38:25;5.72;;;4.95;;
21305;SDS011;10812;51.838;5.838;2022-07-21T09:40:55;5.45;;;4.57;;
21305;SDS011;10812;51.838;5.838;2022-07-21T09:43:33;6.25;;;4.40;;
21305;SDS011;10812;51.838;5.838;2022-07-21T09:46:15;6.80;;;4.78;;
21305;SDS011;10812;51.838;5.838;2022-07-21T09:48:45;5.80;;;4.50;;
21305;SDS011;10812;51.838;5.838;2022-07-21T09:51:37;5.65;;;4.57;;
21305;SDS011;10812;51.838;5.838;2022-07-21T09:54:09;5.13;;;4.43;;
21305;SDS011;10812;51.838;5.838;2022-07-21T09:56:39;5.20;;;4.70;;
21305;SDS011;10812;51.838;5.838;2022-07-21T09:59:09;5.10;;;4.55;;
21305;SDS011;10812;51.838;5.838;2022-07-21T10:01:39;5.75;;;4.97;;
21305;SDS011;10812;51.838;5.838;2022-07-21T10:04:08;5.95;;;5.28;;
21305;SDS011;10812;51.838;5.838;2022-07-21T10:06:39;7.32;;;5.47;;
21305;SDS011;10812;51.838;5.838;2022-07-21T10:09:08;7.20;;;6.22;;
21305;SDS011;10812;51.838;5.838;2022-07-21T10:11:39;6.95;;;5.85;;
21305;SDS011;10812;51.838;5.838;2022-07-21T10:14:08;6.72;;;5.55;;
21305;SDS011;10812;51.838;5.838;2022-07-21T10:16:37;8.25;;;6.15;;
21305;SDS011;10812;51.838;5.838;2022-07-21T10:19:18;7.30;;;5.40;;
21305;SDS011;10812;51.838;5.838;2022-07-21T10:21:52;6.60;;;5.65;;
21305;SDS011;10812;51.838;5.838;2022-07-21T10:24:27;6.75;;;5.82;;
21305;SDS011;10812;51.838;5.838;2022-07-21T10:27:00;7.53;;;6.65;;
21305;SDS011;10812;51.838;5.838;2022-07-21T10:29:48;7.03;;;6.38;;
21305;SDS011;10812;51.838;5.838;2022-07-21T10:32:27;7.75;;;6.53;;
21305;SDS011;10812;51.838;5.838;2022-07-21T10:34:59;8.10;;;6.60;;
21305;SDS011;10812;51.838;5.838;2022-07-21T10:37:48;7.35;;;6.47;;
21305;SDS011;10812;51.838;5.838;2022-07-21T10:40:35;8.70;;;6.93;;
21305;SDS011;10812;51.838;5.838;2022-07-21T10:46:31;7.93;;;7.00;;
21305;SDS011;10812;51.838;5.838;2022-07-21T10:49:04;7.07;;;6.15;;
21305;SDS011;10812;51.838;5.838;2022-07-21T10:51:33;6.60;;;6.00;;
21305;SDS011;10812;51.838;5.838;2022-07-21T11:02:48;6.95;;;6.25;;
21305;SDS011;10812;51.838;5.838;2022-07-21T11:05:20;7.45;;;6.45;;
21305;SDS011;10812;51.838;5.838;2022-07-21T11:10:40;8.40;;;7.35;;
21305;SDS011;10812;51.838;5.838;2022-07-21T11:13:10;8.57;;;7.70;;
21305;SDS011;10812;51.838;5.838;2022-07-21T11:15:46;7.65;;;6.95;;
21305;SDS011;10812;51.838;5.838;2022-07-21T11:18:25;7.20;;;6.53;;
21305;SDS011;10812;51.838;5.838;2022-07-21T11:21:03;7.60;;;6.90;;
21305;SDS011;10812;51.838;5.838;2022-07-21T11:23:36;7.35;;;6.63;;
21305;SDS011;10812;51.838;5.838;2022-07-21T11:26:05;7.95;;;6.88;;
21305;SDS011;10812;51.838;5.838;2022-07-21T11:28:34;6.68;;;6.07;;
21305;SDS011;10812;51.838;5.838;2022-07-21T11:31:06;7.65;;;6.65;;
21305;SDS011;10812;51.838;5.838;2022-07-21T11:33:37;8.13;;;7.15;;
21305;SDS011;10812;51.838;5.838;2022-07-21T11:36:07;8.30;;;7.50;;
21305;SDS011;10812;51.838;5.838;2022-07-21T11:41:23;8.35;;;7.45;;
21305;SDS011;10812;51.838;5.838;2022-07-21T11:43:51;7.93;;;7.13;;
21305;SDS011;10812;51.838;5.838;2022-07-21T11:46:20;8.13;;;6.38;;
21305;SDS011;10812;51.838;5.838;2022-07-21T11:48:59;7.20;;;6.43;;
21305;SDS011;10812;51.838;5.838;2022-07-21T11:51:30;7.88;;;7.05;;
21305;SDS011;10812;51.838;5.838;2022-07-21T11:53:58;6.32;;;5.72;;
21305;SDS011;10812;51.838;5.838;2022-07-21T11:56:26;7.47;;;6.75;;
21305;SDS011;10812;51.838;5.838;2022-07-21T11:59:07;8.32;;;7.32;;
21305;SDS011;10812;51.838;5.838;2022-07-21T12:01:49;8.65;;;6.55;;
21305;SDS011;10812;51.838;5.838;2022-07-21T12:04:29;7.28;;;6.30;;
21305;SDS011;10812;51.838;5.838;2022-07-21T12:07:02;6.45;;;5.65;;
21305;SDS011;10812;51.838;5.838;2022-07-21T12:09:32;7.28;;;6.22;;
21305;SDS011;10812;51.838;5.838;2022-07-21T12:12:00;7.72;;;6.85;;
21305;SDS011;10812;51.838;5.838;2022-07-21T12:14:39;7.10;;;6.20;;
21305;SDS011;10812;51.838;5.838;2022-07-21T12:17:12;11.13;;;6.93;;
21305;SDS011;10812;51.838;5.838;2022-07-21T12:19:41;8.52;;;7.05;;
21305;SDS011;10812;51.838;5.838;2022-07-21T12:22:11;10.30;;;7.07;;
21305;SDS011;10812;51.838;5.838;2022-07-21T12:24:50;9.23;;;7.93;;
21305;SDS011;10812;51.838;5.838;2022-07-21T12:27:20;9.77;;;7.80;;
21305;SDS011;10812;51.838;5.838;2022-07-21T12:29:48;9.18;;;7.95;;
21305;SDS011;10812;51.838;5.838;2022-07-21T12:35:16;9.27;;;7.93;;
21305;SDS011;10812;51.838;5.838;2022-07-21T12:37:58;11.30;;;9.65;;
21305;SDS011;10812;51.838;5.838;2022-07-21T12:40:28;9.98;;;8.60;;
21305;SDS011;10812;51.838;5.838;2022-07-21T12:43:05;10.60;;;9.50;;
21305;SDS011;10812;51.838;5.838;2022-07-21T12:45:45;13.30;;;10.38;;
21305;SDS011;10812;51.838;5.838;2022-07-21T12:48:15;11.68;;;10.48;;
21305;SDS011;10812;51.838;5.838;2022-07-21T12:51:01;12.18;;;10.40;;
21305;SDS011;10812;51.838;5.838;2022-07-21T12:53:33;11.90;;;9.98;;
21305;SDS011;10812;51.838;5.838;2022-07-21T12:56:02;10.50;;;9.50;;
21305;SDS011;10812;51.838;5.838;2022-07-21T12:58:31;10.60;;;9.50;;
21305;SDS011;10812;51.838;5.838;2022-07-21T13:00:59;10.50;;;9.45;;
21305;SDS011;10812;51.838;5.838;2022-07-21T13:03:28;9.73;;;8.82;;
21305;SDS011;10812;51.838;5.838;2022-07-21T13:05:57;10.05;;;9.15;;
21305;SDS011;10812;51.838;5.838;2022-07-21T13:08:26;8.90;;;8.05;;
21305;SDS011;10812;51.838;5.838;2022-07-21T13:10:56;8.27;;;7.00;;
21305;SDS011;10812;51.838;5.838;2022-07-21T13:13:24;8.23;;;7.28;;
21305;SDS011;10812;51.838;5.838;2022-07-21T13:15:53;7.20;;;6.50;;
21305;SDS011;10812;51.838;5.838;2022-07-21T13:18:22;6.63;;;6.05;;
21305;SDS011;10812;51.838;5.838;2022-07-21T13:20:51;6.82;;;6.13;;
21305;SDS011;10812;51.838;5.838;2022-07-21T13:23:20;7.22;;;6.53;;
21305;SDS011;10812;51.838;5.838;2022-07-21T13:25:48;6.30;;;5.68;;
21305;SDS011;10812;51.838;5.838;2022-07-21T13:28:30;6.22;;;5.63;;
21305;SDS011;10812;51.838;5.838;2022-07-21T13:31:02;6.68;;;6.07;;
21305;SDS011;10812;51.838;5.838;2022-07-21T13:33:31;5.60;;;5.10;;
21305;SDS011;10812;51.838;5.838;2022-07-21T13:35:59;6.40;;;5.03;;
21305;SDS011;10812;51.838;5.838;2022-07-21T13:38:27;5.32;;;4.82;;
21305;SDS011;10812;51.838;5.838;2022-07-21T13:40:56;5.97;;;5.40;;
21305;SDS011;10812;51.838;5.838;2022-07-21T13:43:46;4.68;;;4.28;;
21305;SDS011;10812;51.838;5.838;2022-07-21T13:46:14;12.60;;;4.55;;
21305;SDS011;10812;51.838;5.838;2022-07-21T13:48:42;5.25;;;4.78;;
21305;SDS011;10812;51.838;5.838;2022-07-21T13:51:11;5.63;;;5.10;;
21305;SDS011;10812;51.838;5.838;2022-07-21T13:53:40;7.10;;;5.20;;
21305;SDS011;10812;51.838;5.838;2022-07-21T13:56:09;6.18;;;5.57;;
21305;SDS011;10812;51.838;5.838;2022-07-21T13:58:38;6.07;;;5.38;;
21305;SDS011;10812;51.838;5.838;2022-07-21T14:01:08;6.07;;;5.47;;
21305;SDS011;10812;51.838;5.838;2022-07-21T14:03:37;7.38;;;5.63;;
21305;SDS011;10812;51.838;5.838;2022-07-21T14:06:06;5.35;;;4.80;;
21305;SDS011;10812;51.838;5.838;2022-07-21T14:08:34;7.55;;;6.75;;
21305;SDS011;10812;51.838;5.838;2022-07-21T14:11:03;6.43;;;5.72;;
21305;SDS011;10812;51.838;5.838;2022-07-21T14:13:32;6.80;;;5.88;;
21305;SDS011;10812;51.838;5.838;2022-07-21T14:16:01;6.78;;;6.13;;
21305;SDS011;10812;51.838;5.838;2022-07-21T14:18:32;6.65;;;6.05;;
21305;SDS011;10812;51.838;5.838;2022-07-21T14:21:00;6.50;;;5.90;;
21305;SDS011;10812;51.838;5.838;2022-07-21T14:23:29;6.50;;;5.90;;
21305;SDS011;10812;51.838;5.838;2022-07-21T14:25:58;6.50;;;5.85;;
21305;SDS011;10812;51.838;5.838;2022-07-21T14:28:26;5.20;;;4.63;;
21305;SDS011;10812;51.838;5.838;2022-07-21T14:30:54;5.10;;;3.78;;
21305;SDS011;10812;51.838;5.838;2022-07-21T14:33:25;3.45;;;3.15;;
21305;SDS011;10812;51.838;5.838;2022-07-21T14:35:56;2.60;;;2.40;;
21305;SDS011;10812;51.838;5.838;2022-07-21T14:38:25;3.65;;;2.70;;
21305;SDS011;10812;51.838;5.838;2022-07-21T14:40:53;3.75;;;2.83;;
21305;SDS011;10812;51.838;5.838;2022-07-21T14:43:21;3.47;;;2.95;;
21305;SDS011;10812;51.838;5.838;2022-07-21T14:45:49;3.50;;;3.20;;
21305;SDS011;10812;51.838;5.838;2022-07-21T14:48:18;3.42;;;3.13;;
21305;SDS011;10812;51.838;5.838;2022-07-21T14:50:49;3.70;;;3.05;;
21305;SDS011;10812;51.838;5.838;2022-07-21T14:53:19;3.63;;;3.28;;
21305;SDS011;10812;51.838;5.838;2022-07-21T14:55:47;5.72;;;3.22;;
21305;SDS011;10812;51.838;5.838;2022-07-21T14:58:15;3.08;;;2.70;;
21305;SDS011;10812;51.838;5.838;2022-07-21T15:00:43;4.55;;;3.40;;
21305;SDS011;10812;51.838;5.838;2022-07-21T15:03:12;3.80;;;3.20;;
21305;SDS011;10812;51.838;5.838;2022-07-21T15:05:41;3.13;;;2.83;;
21305;SDS011;10812;51.838;5.838;2022-07-21T15:08:10;3.97;;;2.40;;
21305;SDS011;10812;51.838;5.838;2022-07-21T15:10:41;4.85;;;3.03;;
21305;SDS011;10812;51.838;5.838;2022-07-21T15:13:10;3.42;;;2.38;;
21305;SDS011;10812;51.838;5.838;2022-07-21T15:15:38;3.25;;;2.20;;
21305;SDS011;10812;51.838;5.838;2022-07-21T15:18:07;2.67;;;2.47;;
21305;SDS011;10812;51.838;5.838;2022-07-21T15:20:35;2.20;;;1.90;;
21305;SDS011;10812;51.838;5.838;2022-07-21T15:23:04;3.47;;;2.00;;
21305;SDS011;10812;51.838;5.838;2022-07-21T15:25:32;2.50;;;2.30;;
21305;SDS011;10812;51.838;5.838;2022-07-21T15:28:02;4.45;;;3.00;;
21305;SDS011;10812;51.838;5.838;2022-07-21T15:30:32;5.50;;;3.03;;
21305;SDS011;10812;51.838;5.838;2022-07-21T15:33:00;5.65;;;2.80;;
21305;SDS011;10812;51.838;5.838;2022-07-21T15:35:29;5.55;;;3.55;;
21305;SDS011;10812;51.838;5.838;2022-07-21T15:37:57;3.72;;;2.90;;
21305;SDS011;10812;51.838;5.838;2022-07-21T15:40:25;3.30;;;2.90;;